Time;durP1;ratioP1;P1;durP2;ratioP2;P2;SDS_P1;SDS_P2;PMS_P1;PMS_P2;Temp;Humidity;BMP_temperature;BMP_pressure;BME280_temperature;BME280_humidity;BME280_pressure;Samples;Min_cycle;Max_cycle;Signal;HPM_P1;HPM_P2
2021/05/28 00:00:08;;;;;;;5.73;3.98;;;;;;;10.07;67.75;99921.76;232706;1174;115878;-70
2021/05/28 00:05:31;;;;;;;4.43;3.93;;;;;;;10.13;68.50;99926.97;232454;1174;116256;-69
2021/05/28 00:10:35;;;;;;;4.87;3.83;;;;;;;10.13;67.58;99926.97;232614;1175;117462;-70
2021/05/28 00:15:40;;;;;;;6.03;4.40;;;;;;;10.11;68.52;99934.38;232694;1174;116113;-71
2021/05/28 00:20:44;;;;;;;5.40;3.55;;;;;;;10.06;68.77;99931.59;232821;1176;116123;-69
2021/05/28 00:25:49;;;;;;;5.43;4.68;;;;;;;10.08;68.62;99923.38;232596;1174;116849;-68
2021/05/28 00:30:53;;;;;;;5.27;4.13;;;;;;;10.23;69.07;99929.13;232748;1174;115999;-69
2021/05/28 00:35:56;;;;;;;5.93;4.30;;;;;;;10.24;69.00;99927.27;234129;1174;115347;-66
2021/05/28 00:41:01;;;;;;;5.95;4.60;;;;;;;10.24;68.85;99922.75;234944;1174;115690;-67
2021/05/28 00:46:05;;;;;;;4.43;3.87;;;;;;;10.29;68.63;99924.73;235057;1174;114951;-68
2021/05/28 00:51:09;;;;;;;7.48;5.03;;;;;;;10.32;68.72;99933.09;235049;1174;115420;-70
2021/05/28 00:56:14;;;;;;;5.78;5.05;;;;;;;10.37;68.58;99935.89;233876;1174;115744;-72
2021/05/28 01:01:17;;;;;;;4.88;4.03;;;;;;;10.33;68.76;99934.72;232716;1174;116184;-72
2021/05/28 01:06:21;;;;;;;6.13;4.87;;;;;;;10.26;69.38;99943.84;233501;1174;115867;-72
2021/05/28 01:11:26;;;;;;;5.93;5.33;;;;;;;10.25;69.38;99940.36;233180;1175;116146;-71
2021/05/28 01:16:29;;;;;;;9.65;4.85;;;;;;;10.24;69.27;99941.41;232646;1174;116746;-71
2021/05/28 01:21:32;;;;;;;6.13;5.63;;;;;;;10.22;69.25;99946.14;233091;1174;115583;-72
2021/05/28 01:26:36;;;;;;;5.27;4.77;;;;;;;10.15;69.14;99945.39;232567;1174;115624;-71
2021/05/28 01:31:41;;;;;;;6.40;5.70;;;;;;;10.14;69.47;99943.76;233455;1174;115925;-71
2021/05/28 01:36:45;;;;;;;9.60;5.13;;;;;;;10.08;68.70;99955.34;233102;1176;118542;-71
2021/05/28 01:41:49;;;;;;;6.13;5.53;;;;;;;10.03;69.67;99948.03;232631;1176;116258;-71
2021/05/28 01:46:53;;;;;;;19.40;6.93;;;;;;;9.97;69.05;99948.11;232689;1174;115958;-71
2021/05/28 01:51:57;;;;;;;5.63;5.10;;;;;;;9.90;69.53;99942.05;233334;1174;116060;-71
2021/05/28 01:57:00;;;;;;;5.68;4.68;;;;;;;9.83;69.56;99942.13;233122;1174;115285;-70
2021/05/28 02:02:06;;;;;;;9.30;5.43;;;;;;;9.76;69.07;99947.56;232766;1174;116031;-73
2021/05/28 02:07:12;;;;;;;6.35;4.90;;;;;;;9.64;69.08;99951.19;233550;1174;115640;-73
2021/05/28 02:12:16;;;;;;;39.37;15.43;;;;;;;9.49;68.85;99948.08;232412;1174;115176;-72
2021/05/28 02:17:21;;;;;;;24.65;12.60;;;;;;;9.34;69.51;99953.78;233426;1174;115781;-72
2021/05/28 02:22:25;;;;;;;23.48;8.73;;;;;;;9.22;69.59;99955.53;233801;1174;115254;-72
2021/05/28 02:27:29;;;;;;;11.15;7.18;;;;;;;9.05;69.46;99949.98;232833;1174;115533;-72
2021/05/28 02:32:32;;;;;;;11.27;5.80;;;;;;;9.06;69.98;99960.41;234121;1174;115385;-68
2021/05/28 02:37:36;;;;;;;6.70;5.80;;;;;;;9.07;69.93;99958.56;235114;1167;114688;-71
2021/05/28 02:42:39;;;;;;;7.93;5.03;;;;;;;8.95;69.54;99961.11;234504;1167;115557;-72
2021/05/28 02:47:43;;;;;;;7.43;5.27;;;;;;;8.89;69.68;99963.83;235206;1174;115123;-73
2021/05/28 02:52:45;;;;;;;5.15;4.30;;;;;;;8.94;70.06;99970.13;232692;1174;114974;-74
2021/05/28 02:57:51;;;;;;;11.30;5.80;;;;;;;8.91;70.15;99981.19;234542;1174;115335;-72
2021/05/28 03:02:55;;;;;;;5.18;4.78;;;;;;;8.89;70.30;99983.25;233478;1176;116927;-75
2021/05/28 03:08:00;;;;;;;6.53;5.90;;;;;;;8.92;70.28;99979.34;232637;1174;116201;-75
2021/05/28 03:13:03;;;;;;;6.58;5.45;;;;;;;8.93;70.38;99978.31;232526;1174;115679;-72
2021/05/28 03:18:17;;;;;;;13.70;5.63;;;;;;;8.91;70.91;99975.05;232533;1174;116421;-75
2021/05/28 03:23:21;;;;;;;7.85;4.85;;;;;;;8.89;71.26;99974.46;232586;1174;115545;-73
2021/05/28 03:28:26;;;;;;;4.73;4.23;;;;;;;8.99;70.73;99969.47;232490;1174;117427;-69
2021/05/28 03:33:29;;;;;;;6.05;5.48;;;;;;;9.17;70.45;99979.34;232668;1174;115613;-69
2021/05/28 03:38:35;;;;;;;5.00;4.58;;;;;;;9.34;70.75;99977.73;232625;1174;115885;-69
2021/05/28 03:43:38;;;;;;;6.43;5.67;;;;;;;9.42;70.05;99988.09;232573;1174;115081;-68
2021/05/28 03:48:42;;;;;;;4.73;4.33;;;;;;;9.38;69.80;99987.71;233259;1174;115075;-70
2021/05/28 03:53:46;;;;;;;7.37;5.43;;;;;;;9.62;70.57;99980.69;233121;1174;117454;-70
2021/05/28 03:58:49;;;;;;;11.90;6.15;;;;;;;9.77;70.70;99977.66;232640;1176;117226;-70
2021/05/28 04:03:53;;;;;;;11.23;6.05;;;;;;;9.76;70.47;99979.52;233249;1174;115843;-69
2021/05/28 04:08:56;;;;;;;4.90;4.47;;;;;;;9.82;70.19;99976.97;232434;1176;117642;-72
2021/05/28 04:13:59;;;;;;;33.20;5.57;;;;;;;9.95;70.82;99982.95;232590;1174;115920;-72
2021/05/28 04:19:03;;;;;;;4.80;4.30;;;;;;;11.61;68.95;99992.63;232700;1174;116400;-72
2021/05/28 04:24:08;;;;;;;4.55;4.03;;;;;;;13.17;66.81;99995.73;232321;1176;117046;-69
2021/05/28 04:29:10;;;;;;;3.60;3.40;;;;;;;13.85;66.36;99991.02;233252;1174;116661;-70
2021/05/28 04:34:13;;;;;;;4.00;3.50;;;;;;;16.80;62.67;99989.16;232519;1174;116138;-72
2021/05/28 04:39:16;;;;;;;4.57;3.87;;;;;;;18.14;60.91;100002.83;233766;1175;115728;-72
2021/05/28 04:44:19;;;;;;;4.37;4.07;;;;;;;17.62;59.49;100001.41;232904;1174;116312;-71
2021/05/28 04:49:24;;;;;;;4.23;3.75;;;;;;;18.29;57.24;100002.76;234972;1173;115739;-71
2021/05/28 04:54:28;;;;;;;4.73;4.33;;;;;;;17.83;57.18;100004.86;234681;1174;116405;-71
2021/05/28 04:59:31;;;;;;;4.68;4.28;;;;;;;19.13;54.82;100001.59;232513;1176;117093;-71
2021/05/28 05:04:35;;;;;;;3.88;3.58;;;;;;;23.53;50.84;99998.55;232619;1174;116910;-71
2021/05/28 05:09:39;;;;;;;5.15;4.65;;;;;;;27.21;46.84;100017.12;232478;1174;116858;-71
2021/05/28 05:14:44;;;;;;;4.33;4.00;;;;;;;29.68;43.04;100027.61;232772;1176;117152;-73
2021/05/28 05:19:49;;;;;;;4.05;3.75;;;;;;;30.28;39.74;100030.19;233220;1176;117352;-70
2021/05/28 05:24:53;;;;;;;3.45;3.25;;;;;;;30.78;37.77;100032.07;232338;1174;116289;-70
2021/05/28 05:29:59;;;;;;;3.83;3.53;;;;;;;32.19;35.84;100016.38;232579;1174;116537;-70
2021/05/28 05:35:05;;;;;;;3.88;3.63;;;;;;;34.22;34.76;100019.23;232513;1176;117171;-72
2021/05/28 05:40:09;;;;;;;3.43;3.13;;;;;;;35.78;32.80;100033.50;232565;1174;116542;-71
2021/05/28 05:45:14;;;;;;;3.23;3.03;;;;;;;36.47;30.26;100043.28;232674;1174;116670;-72
2021/05/28 05:50:18;;;;;;;2.90;2.60;;;;;;;36.32;29.17;100050.88;232583;1174;116664;-70
2021/05/28 05:55:23;;;;;;;2.73;2.53;;;;;;;36.93;28.16;100045.88;232481;1174;115845;-70
2021/05/28 06:00:26;;;;;;;4.65;2.35;;;;;;;37.31;26.36;100032.14;232994;1174;115863;-71
2021/05/28 06:05:29;;;;;;;2.53;2.30;;;;;;;37.33;26.08;100032.52;233419;1174;115640;-75
2021/05/28 06:10:32;;;;;;;2.40;2.20;;;;;;;37.50;24.50;100034.38;233166;1175;116822;-72
2021/05/28 06:15:37;;;;;;;2.43;2.23;;;;;;;37.97;24.33;100029.98;232580;1174;116221;-74
2021/05/28 06:20:40;;;;;;;2.50;1.75;;;;;;;38.40;24.34;100029.55;233924;1170;118350;-73
2021/05/28 06:25:45;;;;;;;1.30;1.20;;;;;;;37.27;22.91;100023.06;234462;1174;115150;-72
2021/05/28 06:30:48;;;;;;;1.25;1.13;;;;;;;36.68;23.70;100020.20;233522;1174;115949;-75
2021/05/28 06:35:51;;;;;;;1.73;1.67;;;;;;;34.78;24.46;100020.67;234821;1174;115696;-71
2021/05/28 06:40:54;;;;;;;1.35;1.33;;;;;;;31.67;25.75;100017.98;233782;1174;115645;-71
2021/05/28 06:45:56;;;;;;;1.77;1.60;;;;;;;29.04;27.60;100017.74;235173;1174;116232;-72
2021/05/28 06:51:00;;;;;;;1.80;1.70;;;;;;;26.47;29.62;100013.30;234186;1174;117657;-74
2021/05/28 06:56:05;;;;;;;1.55;1.45;;;;;;;25.16;31.46;100016.18;233158;1174;117818;-69
2021/05/28 07:01:11;;;;;;;1.67;1.57;;;;;;;23.89;32.98;100022.03;233934;1174;116448;-71
2021/05/28 07:06:14;;;;;;;2.50;2.30;;;;;;;23.56;34.31;100018.87;233000;1174;118049;-70
2021/05/28 07:11:16;;;;;;;2.90;2.70;;;;;;;22.55;35.31;100020.28;232472;1174;117153;-69
2021/05/28 07:16:20;;;;;;;2.97;2.17;;;;;;;21.57;36.16;100028.02;232477;1174;116071;-70
2021/05/28 07:21:26;;;;;;;2.83;2.63;;;;;;;20.64;38.07;100027.13;232439;1174;117297;-71
2021/05/28 07:26:29;;;;;;;4.45;4.05;;;;;;;20.24;39.44;100038.50;232628;1176;116388;-71
2021/05/28 07:31:33;;;;;;;4.33;4.03;;;;;;;19.40;40.30;100038.09;232351;1174;117521;-70
2021/05/28 07:36:36;;;;;;;4.53;4.13;;;;;;;18.88;41.77;100036.94;232884;1174;117687;-69
2021/05/28 07:41:40;;;;;;;4.43;4.13;;;;;;;18.45;42.78;100047.45;232503;1174;117602;-69
2021/05/28 07:46:44;;;;;;;4.50;4.20;;;;;;;18.25;43.35;100052.97;232464;1174;117014;-70
2021/05/28 07:51:49;;;;;;;5.18;4.75;;;;;;;18.23;44.76;100052.44;232460;1174;116274;-67
2021/05/28 07:56:52;;;;;;;5.70;5.30;;;;;;;18.46;44.74;100057.16;233252;1174;115771;-68
2021/05/28 08:01:55;;;;;;;6.43;5.90;;;;;;;18.42;45.17;100057.99;232822;1174;116581;-69
2021/05/28 08:06:58;;;;;;;5.83;5.38;;;;;;;18.14;44.98;100052.20;232647;1174;117715;-67
2021/05/28 08:12:01;;;;;;;7.40;6.60;;;;;;;17.76;45.66;100061.77;233488;1174;204549;-69
2021/05/28 08:17:05;;;;;;;6.18;5.78;;;;;;;17.92;46.45;100054.45;232396;1174;115319;-68
2021/05/28 08:22:09;;;;;;;6.98;6.38;;;;;;;18.15;46.25;100055.70;232782;1174;116153;-68
2021/05/28 08:27:13;;;;;;;7.30;6.80;;;;;;;18.34;46.35;100056.70;234007;1174;115273;-69
2021/05/28 08:32:15;;;;;;;7.45;6.83;;;;;;;18.49;46.36;100067.41;233188;1174;116567;-66
2021/05/28 08:37:18;;;;;;;3.63;3.35;;;;;;;18.38;46.17;100062.33;235024;1174;117880;-70
2021/05/28 08:42:21;;;;;;;7.45;5.65;;;;;;;18.07;46.16;100069.76;235028;1174;116602;-69
2021/05/28 08:47:25;;;;;;;6.57;6.07;;;;;;;17.96;46.78;100062.80;235019;1174;115522;-70
2021/05/28 08:52:28;;;;;;;5.80;5.40;;;;;;;18.24;47.65;100064.84;234201;1174;115527;-70
2021/05/28 08:57:32;;;;;;;5.50;5.07;;;;;;;19.24;47.89;100058.27;233194;1174;116524;-71
2021/05/28 09:02:39;;;;;;;3.70;3.40;;;;;;;19.71;45.99;100062.95;232290;1168;115749;-69
2021/05/28 09:07:56;;;;;;;4.13;3.90;;;;;;;19.84;46.17;100052.27;233825;1174;116181;-72
2021/05/28 09:13:26;;;;;;;5.90;5.43;;;;;;;20.55;46.06;100052.45;233427;1174;116343;-70
2021/05/28 09:18:46;;;;;;;4.88;4.35;;;;;;;20.54;44.71;100048.13;232379;1174;115809;-69
2021/05/28 09:23:49;;;;;;;5.23;4.90;;;;;;;20.19;44.26;100048.30;232967;1174;116201;-68
2021/05/28 09:28:56;;;;;;;5.18;4.88;;;;;;;20.15;45.49;100047.29;233568;1174;116038;-68
2021/05/28 09:34:00;;;;;;;3.73;3.53;;;;;;;20.46;45.08;100042.30;232635;1174;115881;-68
2021/05/28 09:39:05;;;;;;;4.60;4.23;;;;;;;20.61;45.30;100038.55;232385;1174;117205;-69
2021/05/28 09:44:15;;;;;;;5.03;4.70;;;;;;;20.95;44.52;100038.30;233000;1174;115697;-70
2021/05/28 09:49:26;;;;;;;4.90;4.50;;;;;;;21.08;43.72;100042.16;232516;1174;115602;-70
2021/05/28 09:54:28;;;;;;;4.88;4.40;;;;;;;21.31;43.83;100035.02;232470;1174;115469;-70
2021/05/28 09:59:46;;;;;;;5.95;5.43;;;;;;;21.37;43.47;100026.50;232561;1174;116454;-69
2021/05/28 10:04:57;;;;;;;5.23;4.83;;;;;;;21.34;43.48;100026.28;232480;1176;116202;-71
2021/05/28 10:10:02;;;;;;;4.35;4.08;;;;;;;20.77;42.93;100014.76;233163;1174;116427;-70
2021/05/28 10:15:14;;;;;;;5.08;4.68;;;;;;;20.41;43.05;100028.83;232256;1170;116009;-69
2021/05/28 10:20:18;;;;;;;4.35;4.05;;;;;;;19.84;43.50;100035.23;233454;1174;116077;-70
2021/05/28 10:25:22;;;;;;;6.95;6.33;;;;;;;19.23;44.47;100041.24;233121;1174;117136;-70
2021/05/28 10:30:28;;;;;;;4.40;4.00;;;;;;;18.92;45.51;100038.00;232418;1174;116710;-68
2021/05/28 10:35:45;;;;;;;5.73;5.40;;;;;;;18.92;45.46;100035.30;235112;1173;116910;-68
2021/05/28 10:40:49;;;;;;;6.43;5.93;;;;;;;19.59;46.04;100027.38;234123;1174;115663;-70
2021/05/28 10:46:03;;;;;;;6.35;5.85;;;;;;;19.49;45.31;100029.09;235090;1174;115920;-71
2021/05/28 10:51:22;;;;;;;5.93;5.43;;;;;;;19.10;45.82;100022.97;234752;1174;115665;-71
2021/05/28 10:56:36;;;;;;;5.30;4.90;;;;;;;18.88;46.30;100014.52;234845;1174;115960;-70
2021/05/28 11:01:45;;;;;;;5.50;5.10;;;;;;;18.85;46.92;100021.30;233074;1174;115638;-70
2021/05/28 11:06:59;;;;;;;4.65;4.35;;;;;;;18.93;46.87;100014.48;233614;1174;116906;-71
2021/05/28 11:12:03;;;;;;;4.10;3.53;;;;;;;19.06;47.03;100009.22;232476;1174;115745;-69
2021/05/28 11:17:13;;;;;;;5.35;4.85;;;;;;;19.05;46.86;100014.91;233646;1173;115524;-71
2021/05/28 11:22:25;;;;;;;4.38;3.45;;;;;;;19.21;47.15;100004.78;232894;1174;115576;-71
2021/05/28 11:27:27;;;;;;;2.90;2.70;;;;;;;19.41;46.81;100004.56;232639;1174;115950;-70
2021/05/28 11:32:43;;;;;;;3.13;2.93;;;;;;;19.30;46.58;100001.15;232456;1174;115704;-71
2021/05/28 11:37:59;;;;;;;2.43;2.33;;;;;;;19.05;46.48;99996.80;232716;1167;115662;-70
2021/05/28 11:43:17;;;;;;;2.77;2.57;;;;;;;19.21;46.70;99988.56;232641;1174;116075;-71
2021/05/28 11:48:22;;;;;;;2.73;2.63;;;;;;;19.77;46.89;99986.88;232441;1174;115136;-71
2021/05/28 11:53:33;;;;;;;3.50;3.30;;;;;;;19.74;45.92;99987.45;232640;1174;115457;-71
2021/05/28 11:58:37;;;;;;;4.40;3.50;;;;;;;19.55;45.99;99988.51;232664;1174;115031;-72
2021/05/28 12:03:40;;;;;;;3.13;2.93;;;;;;;19.47;46.06;99990.72;233164;1174;116225;-70
2021/05/28 12:08:42;;;;;;;6.93;2.88;;;;;;;19.33;46.05;99988.97;233432;1174;115507;-73
2021/05/28 12:13:45;;;;;;;2.75;2.55;;;;;;;19.09;45.75;99987.05;232420;1174;115588;-70
2021/05/28 12:18:49;;;;;;;3.13;2.90;;;;;;;18.91;46.05;99998.56;232503;1167;116874;-72
2021/05/28 12:23:56;;;;;;;3.53;3.25;;;;;;;18.79;45.99;99990.81;233584;1174;115728;-69
2021/05/28 12:29:01;;;;;;;4.65;4.35;;;;;;;18.80;46.06;99978.13;234323;1174;118213;-70
2021/05/28 12:34:08;;;;;;;4.10;3.50;;;;;;;18.87;46.50;99989.41;233203;1174;115691;-69
2021/05/28 12:39:20;;;;;;;3.75;3.35;;;;;;;18.82;46.45;99989.45;234702;1167;116251;-69
2021/05/28 12:44:25;;;;;;;6.77;2.93;;;;;;;18.66;46.45;99996.04;234372;1174;115041;-70
2021/05/28 12:49:30;;;;;;;3.18;2.85;;;;;;;18.65;46.32;99997.16;235047;1174;115580;-69
2021/05/28 12:54:35;;;;;;;3.33;2.77;;;;;;;18.57;45.96;100000.42;234983;1174;115273;-70
2021/05/28 12:59:41;;;;;;;3.70;2.70;;;;;;;18.56;46.36;99993.41;234780;1174;115548;-72
2021/05/28 13:04:53;;;;;;;4.05;3.28;;;;;;;18.49;46.58;100008.02;234126;1174;115578;-72
2021/05/28 13:10:16;;;;;;;3.40;3.20;;;;;;;18.15;46.85;100004.44;232436;1174;116769;-71
2021/05/28 13:15:30;;;;;;;5.67;3.97;;;;;;;17.95;47.77;100004.55;232519;1174;118636;-73
2021/05/28 13:20:33;;;;;;;4.60;4.13;;;;;;;18.01;48.18;100006.15;232674;1174;115879;-77
2021/05/28 13:25:38;;;;;;;3.35;3.15;;;;;;;18.09;47.84;100010.94;232564;1174;115819;-68
2021/05/28 13:30:47;;;;;;;4.25;3.85;;;;;;;18.10;48.04;100007.16;233276;1174;116042;-70
2021/05/28 13:35:57;;;;;;;3.40;3.10;;;;;;;18.27;47.85;100001.42;232890;1174;115174;-72
2021/05/28 13:41:23;;;;;;;2.90;2.60;;;;;;;18.33;47.19;100005.70;232674;1174;116625;-69
2021/05/28 13:46:27;;;;;;;;;;;;;;;18.38;46.95;100009.16;232992;1174;115535;-70
2021/05/28 13:51:30;;;;;;;3.10;2.20;;;;;;;18.40;47.57;100009.69;233475;1174;103456;-72
2021/05/28 13:56:33;;;;;;;3.60;3.37;;;;;;;18.36;47.53;100005.93;232451;1174;115805;-70
2021/05/28 14:01:36;;;;;;;3.83;3.30;;;;;;;18.26;47.58;100006.02;232612;1174;115738;-71
2021/05/28 14:06:40;;;;;;;2.87;2.73;;;;;;;18.15;48.15;100017.93;232719;1174;116535;-72
2021/05/28 14:11:43;;;;;;;3.85;3.55;;;;;;;18.09;48.26;100013.64;233247;1174;116049;-70
2021/05/28 14:16:47;;;;;;;2.75;2.55;;;;;;;18.07;48.61;100011.22;232365;1174;116486;-70
2021/05/28 14:21:51;;;;;;;3.35;3.15;;;;;;;18.05;48.98;100013.38;232500;1174;115345;-71
2021/05/28 14:26:58;;;;;;;3.47;3.17;;;;;;;18.01;49.07;100017.74;233556;1174;118693;-71
2021/05/28 14:32:02;;;;;;;4.08;3.43;;;;;;;17.96;49.34;100016.95;234049;1174;115662;-70
2021/05/28 14:37:05;;;;;;;5.73;4.08;;;;;;;17.94;49.44;100011.84;233643;1174;116181;-71
2021/05/28 14:42:08;;;;;;;3.05;2.80;;;;;;;17.98;49.51;100009.39;234583;1174;116397;-68
2021/05/28 14:47:11;;;;;;;5.58;3.13;;;;;;;18.01;50.03;100009.66;234920;1174;115474;-69
2021/05/28 14:52:15;;;;;;;2.83;2.50;;;;;;;17.98;49.42;100004.81;234917;1174;115159;-69
2021/05/28 14:57:20;;;;;;;2.70;2.60;;;;;;;17.86;49.39;100012.40;234101;1174;115235;-69
2021/05/28 15:02:24;;;;;;;3.00;2.80;;;;;;;17.65;49.41;99998.19;234998;1167;115555;-69
2021/05/28 15:07:27;;;;;;;1.90;1.80;;;;;;;17.38;49.76;100005.79;233019;1174;116221;-69
2021/05/28 15:12:31;;;;;;;2.50;2.30;;;;;;;17.25;50.14;100001.76;232920;1174;116392;-68
2021/05/28 15:17:35;;;;;;;2.38;1.90;;;;;;;17.21;50.16;100006.07;233943;1174;115511;-69
2021/05/28 15:22:41;;;;;;;1.53;1.43;;;;;;;17.26;49.88;99995.29;233067;1174;116350;-70
2021/05/28 15:27:47;;;;;;;;;;;;;;;17.18;49.67;99991.25;233050;1174;115177;-69
2021/05/28 15:32:53;;;;;;;2.08;1.88;;;;;;;17.08;50.09;100002.06;234744;1174;103098;-69
2021/05/28 15:37:57;;;;;;;1.97;1.67;;;;;;;17.03;50.35;99996.67;233134;1174;115566;-70
2021/05/28 15:43:10;;;;;;;1.55;1.45;;;;;;;16.96;50.86;100004.21;233538;1174;116549;-69
2021/05/28 15:48:14;;;;;;;2.70;2.10;;;;;;;16.98;51.13;100002.06;232901;1174;116107;-69
2021/05/28 15:53:19;;;;;;;2.70;1.80;;;;;;;17.04;51.54;100000.98;233555;1174;115546;-70
2021/05/28 15:58:22;;;;;;;2.35;1.70;;;;;;;17.08;51.47;99995.87;232718;1174;116450;-69
2021/05/28 16:03:26;;;;;;;8.63;2.97;;;;;;;17.09;51.74;99998.30;233637;1174;115420;-69
2021/05/28 16:08:30;;;;;;;23.90;12.50;;;;;;;17.06;51.59;99989.94;233278;1174;115157;-69
2021/05/28 16:13:33;;;;;;;2.23;2.10;;;;;;;16.96;52.13;99996.13;233340;1174;116587;-69
2021/05/28 16:18:35;;;;;;;4.28;2.95;;;;;;;16.83;51.74;100000.16;233618;1174;114837;-70
2021/05/28 16:23:39;;;;;;;2.80;2.60;;;;;;;16.70;52.02;99998.02;232506;1174;115318;-69
2021/05/28 16:28:43;;;;;;;3.37;1.80;;;;;;;16.59;53.00;100007.13;232878;1174;115438;-68
2021/05/28 16:33:47;;;;;;;2.15;1.70;;;;;;;16.40;53.72;100006.84;232992;1174;116783;-71
2021/05/28 16:38:50;;;;;;;2.05;1.95;;;;;;;16.39;54.31;100007.91;235021;1174;115384;-70
2021/05/28 16:43:54;;;;;;;2.17;2.03;;;;;;;16.53;55.03;99997.42;233261;1174;116770;-66
2021/05/28 16:48:58;;;;;;;3.03;1.83;;;;;;;16.54;55.74;100001.73;235055;1174;116677;-66
2021/05/28 16:54:02;;;;;;;2.03;1.90;;;;;;;16.51;55.46;99991.50;235082;1174;115895;-66
2021/05/28 16:59:06;;;;;;;1.90;1.80;;;;;;;16.38;55.75;99992.84;233550;1174;115276;-69
2021/05/28 17:04:09;;;;;;;2.03;1.93;;;;;;;16.18;55.30;99998.19;234654;1174;115561;-70
2021/05/28 17:09:13;;;;;;;2.10;1.93;;;;;;;16.00;55.27;100001.34;232621;1174;115373;-68
2021/05/28 17:14:16;;;;;;;1.43;1.33;;;;;;;15.82;55.77;100005.31;233403;1174;115493;-70
2021/05/28 17:19:19;;;;;;;1.95;1.78;;;;;;;15.64;56.39;100001.19;232930;1173;116225;-70
2021/05/28 17:24:23;;;;;;;2.10;1.90;;;;;;;15.45;56.45;99999.99;234014;1174;115588;-71
2021/05/28 17:29:26;;;;;;;1.45;1.38;;;;;;;15.31;56.22;100006.88;233409;1169;116249;-69
2021/05/28 17:34:55;;;;;;;1.40;1.33;;;;;;;15.20;56.47;100003.33;233678;1174;115649;-68
2021/05/28 17:39:57;;;;;;;4.20;1.90;;;;;;;15.07;57.04;100012.63;233055;1174;116114;-68
2021/05/28 17:45:00;;;;;;;1.67;1.57;;;;;;;15.04;57.03;100023.88;233415;1174;116066;-67
2021/05/28 17:50:08;;;;;;;1.48;1.38;;;;;;;14.95;56.84;100012.02;232567;1174;116518;-65
2021/05/28 17:55:14;;;;;;;3.33;2.23;;;;;;;14.91;57.12;100023.52;232914;1174;116493;-65
2021/05/28 18:00:17;;;;;;;1.65;1.55;;;;;;;14.79;57.63;100026.36;233098;1174;117021;-65
2021/05/28 18:05:20;;;;;;;1.87;1.73;;;;;;;14.69;58.02;100018.21;232960;1174;116461;-67
2021/05/28 18:10:24;;;;;;;2.30;2.20;;;;;;;14.61;57.60;100026.74;232727;1175;117244;-66
2021/05/28 18:15:29;;;;;;;3.35;2.10;;;;;;;14.53;58.45;100027.19;232840;1174;115544;-66
2021/05/28 18:20:32;;;;;;;1.50;1.40;;;;;;;14.40;58.80;100031.05;233390;1174;115877;-68
2021/05/28 18:25:36;;;;;;;8.50;1.67;;;;;;;14.27;58.83;100042.99;233397;1174;115975;-68
2021/05/28 18:30:40;;;;;;;1.55;1.45;;;;;;;14.11;58.44;100043.86;234609;1174;115131;-67
2021/05/28 18:35:48;;;;;;;1.30;1.03;;;;;;;13.98;58.81;100044.25;233832;1174;116693;-68
2021/05/28 18:40:51;;;;;;;4.47;1.47;;;;;;;13.87;58.88;100032.59;233111;1174;116680;-67
2021/05/28 18:45:55;;;;;;;1.95;1.78;;;;;;;13.75;59.80;100046.13;232671;1175;116830;-68
2021/05/28 18:51:02;;;;;;;1.90;1.65;;;;;;;13.57;59.57;100041.03;234190;1174;116503;-68
2021/05/28 18:56:08;;;;;;;3.78;2.33;;;;;;;13.44;59.79;100047.56;234104;1174;214098;-70
2021/05/28 19:01:13;;;;;;;1.65;1.55;;;;;;;13.26;60.01;100050.48;233240;1174;116041;-68
2021/05/28 19:06:18;;;;;;;1.78;1.68;;;;;;;13.07;60.60;100052.58;234727;1174;116884;-66
2021/05/28 19:11:22;;;;;;;3.10;2.80;;;;;;;12.92;60.86;100052.31;233433;1174;140131;-66
2021/05/28 19:16:26;;;;;;;3.90;2.53;;;;;;;12.79;61.34;100057.99;234578;1174;116218;-66
2021/05/28 19:21:31;;;;;;;3.63;2.65;;;;;;;12.64;62.05;100066.55;233452;1174;116676;-65
2021/05/28 19:26:36;;;;;;;4.00;3.10;;;;;;;12.51;62.30;100068.72;233326;1174;116911;-67
2021/05/28 19:31:42;;;;;;;3.87;2.30;;;;;;;12.29;62.45;100066.69;232947;1174;116532;-69
2021/05/28 19:36:45;;;;;;;;;;;;;;;12.14;62.87;100077.09;232320;1176;116892;-68
2021/05/28 19:41:49;;;;;;;2.87;2.30;;;;;;;12.00;63.90;100083.73;233171;1173;104040;-68
2021/05/28 19:46:53;;;;;;;3.90;3.38;;;;;;;11.90;63.84;100079.00;232644;1174;117494;-66
2021/05/28 19:52:00;;;;;;;7.28;3.88;;;;;;;11.82;64.24;100084.70;232785;1174;115570;-69
2021/05/28 19:57:06;;;;;;;4.15;3.75;;;;;;;11.78;64.55;100084.34;232294;1174;116066;-69
2021/05/28 20:02:11;;;;;;;4.85;3.85;;;;;;;11.77;64.59;100092.59;232459;1174;115607;-68
2021/05/28 20:07:15;;;;;;;;;;;;;;;11.72;65.07;100085.25;232894;1174;195600;-66
2021/05/28 20:17:56;;;;;;;;;;;;;;;11.70;65.79;100094.53;232514;1174;115735;-67
2021/05/28 20:22:59;;;;;;;7.13;5.95;;;;;;;11.78;65.75;100103.05;234219;1174;103014;-69
2021/05/28 20:28:04;;;;;;;10.13;6.90;;;;;;;11.80;66.37;100095.61;233340;1174;116122;-69
2021/05/28 20:33:09;;;;;;;7.53;5.90;;;;;;;11.87;66.42;100097.35;233125;1174;116326;-68
2021/05/28 20:38:16;;;;;;;9.70;7.58;;;;;;;11.84;66.37;100105.83;234107;1174;114890;-66
2021/05/28 20:43:20;;;;;;;9.27;7.13;;;;;;;11.84;66.25;100108.50;234876;1170;115000;-68
2021/05/28 20:48:25;;;;;;;9.15;8.10;;;;;;;11.90;66.38;100112.92;235061;1174;116466;-68
2021/05/28 20:53:33;;;;;;;7.05;5.05;;;;;;;11.89;66.75;100116.63;235049;1174;115147;-65
2021/05/28 20:58:40;;;;;;;10.55;6.40;;;;;;;11.85;66.54;100120.81;235098;1174;115886;-68
2021/05/28 21:03:50;;;;;;;6.27;4.37;;;;;;;11.86;66.57;100123.25;235100;1174;115309;-67
2021/05/28 21:08:54;;;;;;;6.23;4.17;;;;;;;11.91;66.58;100119.89;235185;1174;116377;-68
2021/05/28 21:14:00;;;;;;;5.70;5.17;;;;;;;11.89;66.56;100116.63;234970;1174;115335;-68
2021/05/28 21:19:05;;;;;;;7.25;4.55;;;;;;;11.85;66.90;100131.50;234335;1174;117915;-68
2021/05/28 21:24:08;;;;;;;4.83;4.20;;;;;;;11.82;66.81;100115.94;233634;1174;116242;-66
2021/05/28 21:29:13;;;;;;;5.60;4.28;;;;;;;11.82;67.56;100118.61;232556;1174;115782;-70
2021/05/28 21:34:16;;;;;;;7.43;5.68;;;;;;;11.70;67.02;100106.03;234152;1174;115325;-66
2021/05/28 21:39:19;;;;;;;9.88;5.00;;;;;;;11.66;67.38;100123.56;232795;1174;216233;-68
2021/05/28 21:44:22;;;;;;;6.55;5.50;;;;;;;11.67;67.40;100114.50;233030;1174;115482;-69
2021/05/28 21:49:28;;;;;;;6.23;5.53;;;;;;;11.55;67.31;100110.22;233681;1174;115249;-67
2021/05/28 21:54:33;;;;;;;11.50;7.53;;;;;;;11.36;67.67;100112.16;232639;1174;115452;-69
2021/05/28 21:59:37;;;;;;;9.98;6.55;;;;;;;11.27;67.94;100119.72;232580;1174;115757;-69
2021/05/28 22:04:42;;;;;;;8.38;6.40;;;;;;;11.21;68.12;100115.30;232871;1174;115854;-71
2021/05/28 22:09:46;;;;;;;7.70;6.08;;;;;;;11.13;67.84;100120.95;232566;1174;115687;-70
2021/05/28 22:14:49;;;;;;;8.10;6.05;;;;;;;11.08;68.04;100118.97;232440;1177;116396;-71
2021/05/28 22:19:53;;;;;;;9.08;6.05;;;;;;;11.01;68.61;100117.43;233405;1174;116941;-68
2021/05/28 22:24:56;;;;;;;13.18;7.00;;;;;;;11.03;68.85;100116.16;233039;1174;116271;-71
2021/05/28 22:35:23;;;;;;;9.10;6.17;;;;;;;11.02;69.36;100117.20;234329;1174;116594;-69
2021/05/28 22:40:27;;;;;;;13.53;8.63;;;;;;;11.09;69.22;100112.59;233571;1174;116228;-69
2021/05/28 22:45:33;;;;;;;14.63;8.20;;;;;;;11.18;69.72;100114.94;233301;1174;116601;-69
2021/05/28 22:50:49;;;;;;;13.63;7.45;;;;;;;11.09;69.30;100115.26;232413;1174;116235;-70
2021/05/28 22:55:56;;;;;;;14.15;7.60;;;;;;;11.03;69.60;100121.50;232443;1174;116232;-70
2021/05/28 23:00:59;;;;;;;10.90;6.43;;;;;;;11.03;69.56;100112.68;235020;1174;115942;-68
2021/05/28 23:06:04;;;;;;;12.00;7.30;;;;;;;11.06;69.28;100107.70;233810;1173;115369;-69
2021/05/28 23:11:28;;;;;;;10.60;7.78;;;;;;;11.09;69.75;100111.77;234012;1174;115663;-69
2021/05/28 23:16:34;;;;;;;12.13;8.00;;;;;;;11.11;69.88;100101.69;234275;1174;115309;-69
2021/05/28 23:21:39;;;;;;;12.70;8.40;;;;;;;11.10;69.86;100111.55;233830;1174;115424;-67